createdAt,value
2023-05-15T00:01:32.562Z,14.24
2023-05-15T00:03:59.383Z,14.25
2023-05-15T00:06:26.376Z,14.27
2023-05-15T00:08:53.309Z,14.25
2023-05-15T00:11:21.395Z,14.26
2023-05-15T00:13:48.115Z,14.26
2023-05-15T00:16:14.977Z,14.34
2023-05-15T00:18:41.841Z,14.28
2023-05-15T00:21:09.077Z,14.34
2023-05-15T00:23:35.824Z,14.38
2023-05-15T00:26:03.071Z,14.32
2023-05-15T00:28:29.856Z,14.41
2023-05-15T00:30:56.839Z,14.36
2023-05-15T00:33:23.654Z,14.38
2023-05-15T00:35:51.062Z,14.35
2023-05-15T00:38:17.820Z,14.33
2023-05-15T00:40:45.850Z,14.28
2023-05-15T00:43:13.079Z,14.34
2023-05-15T00:45:41.455Z,14.34
2023-05-15T00:48:10.079Z,14.32
2023-05-15T00:50:38.250Z,14.24
2023-05-15T00:53:06.094Z,14.20
2023-05-15T00:55:34.081Z,14.20
2023-05-15T00:58:02.344Z,14.17
2023-05-15T01:00:32.857Z,14.13
2023-05-15T01:03:00.042Z,14.13
2023-05-15T01:05:27.426Z,14.07
2023-05-15T01:08:38.449Z,14.12
2023-05-15T01:11:07.723Z,14.06
2023-05-15T01:13:34.799Z,14.06
2023-05-15T01:16:01.698Z,14.05
2023-05-15T01:18:32.595Z,14.01
2023-05-15T01:21:05.288Z,13.98
2023-05-15T01:24:03.398Z,13.97
2023-05-15T01:26:58.179Z,13.94
2023-05-15T01:29:30.703Z,13.89
2023-05-15T01:32:03.164Z,13.83
2023-05-15T01:34:39.425Z,13.77
2023-05-15T01:37:08.069Z,13.67
2023-05-15T01:39:36.208Z,13.68
2023-05-15T01:42:08.345Z,13.65
2023-05-15T01:44:38.193Z,13.63
2023-05-15T01:47:12.220Z,13.64
2023-05-15T01:49:40.604Z,13.44
2023-05-15T01:52:13.773Z,13.38
2023-05-15T01:54:41.962Z,13.34
2023-05-15T01:57:10.409Z,13.31
2023-05-15T01:59:37.418Z,13.33
2023-05-15T02:02:07.995Z,13.26
2023-05-15T02:04:36.332Z,13.26
2023-05-15T02:07:04.457Z,13.26
2023-05-15T02:09:32.627Z,13.21
2023-05-15T02:12:01.491Z,13.17
2023-05-15T02:14:32.216Z,13.06
2023-05-15T02:16:59.068Z,13.01
2023-05-15T02:19:25.981Z,12.94
2023-05-15T02:21:52.854Z,12.96
2023-05-15T02:24:19.567Z,12.91
2023-05-15T02:27:00.034Z,12.91
2023-05-15T02:29:51.376Z,12.92
2023-05-15T02:32:36.761Z,12.96
2023-05-15T02:35:26.663Z,12.93
2023-05-15T02:37:56.621Z,12.95
2023-05-15T02:40:24.914Z,12.88
2023-05-15T02:42:54.253Z,12.81
2023-05-15T02:45:24.120Z,12.87
2023-05-15T02:47:51.626Z,12.88
2023-05-15T02:50:18.830Z,12.93
2023-05-15T02:52:45.561Z,12.92
2023-05-15T02:55:12.416Z,12.84
2023-05-15T02:57:39.710Z,12.87
2023-05-15T03:00:09.116Z,12.86
2023-05-15T03:02:36.160Z,12.78
2023-05-15T03:05:03.488Z,12.84
2023-05-15T03:07:30.352Z,12.75
2023-05-15T03:09:57.040Z,12.66
2023-05-15T03:12:23.729Z,12.63
2023-05-15T03:14:50.391Z,12.66
2023-05-15T03:17:17.192Z,12.58
2023-05-15T03:19:44.001Z,12.55
2023-05-15T03:22:10.735Z,12.65
2023-05-15T03:24:37.507Z,12.64
2023-05-15T03:27:05.205Z,12.59
2023-05-15T03:29:31.949Z,12.57
2023-05-15T03:31:58.736Z,12.56
2023-05-15T03:34:25.514Z,12.47
2023-05-15T03:36:52.310Z,12.56
2023-05-15T03:39:19.069Z,12.48
2023-05-15T03:41:45.752Z,12.43
2023-05-15T03:44:12.603Z,12.48
2023-05-15T03:46:39.348Z,12.55
2023-05-15T03:49:06.049Z,12.57
2023-05-15T03:51:32.980Z,12.61
2023-05-15T03:53:59.922Z,12.62
2023-05-15T03:56:26.659Z,12.59
2023-05-15T03:58:53.729Z,12.65
2023-05-15T04:01:20.507Z,12.65
2023-05-15T04:03:47.215Z,12.65
2023-05-15T04:06:14.101Z,12.80
2023-05-15T04:08:41.634Z,12.75
2023-05-15T04:11:11.934Z,12.71
2023-05-15T04:13:38.646Z,12.79
2023-05-15T04:16:06.086Z,12.87
2023-05-15T04:18:32.922Z,12.96
2023-05-15T04:20:59.815Z,13.03
2023-05-15T04:23:26.789Z,13.06
2023-05-15T04:25:53.672Z,13.04
2023-05-15T04:28:23.696Z,13.10
2023-05-15T04:30:50.754Z,13.09
2023-05-15T04:33:17.627Z,13.16
2023-05-15T04:35:44.534Z,13.24
2023-05-15T04:38:11.353Z,13.25
2023-05-15T04:40:38.200Z,13.35
2023-05-15T04:43:05.238Z,13.34
2023-05-15T04:45:31.994Z,13.30
2023-05-15T04:47:58.835Z,13.48
2023-05-15T04:50:25.891Z,13.56
2023-05-15T04:52:52.924Z,13.49
2023-05-15T04:55:19.703Z,13.53
2023-05-15T04:57:47.929Z,13.61
2023-05-15T05:00:15.661Z,13.47
2023-05-15T05:02:45.404Z,13.48
2023-05-15T05:05:14.569Z,13.56
2023-05-15T05:07:42.456Z,13.56
2023-05-15T05:10:09.765Z,13.43
2023-05-15T05:12:36.459Z,13.51
2023-05-15T05:15:03.346Z,13.55
2023-05-15T05:17:31.024Z,13.53
2023-05-15T05:19:57.765Z,13.51
2023-05-15T05:22:24.688Z,13.56
2023-05-15T05:24:51.461Z,13.73
2023-05-15T05:27:18.230Z,14.25
2023-05-15T05:29:45.229Z,14.64
2023-05-15T05:32:12.619Z,14.48
2023-05-15T05:34:39.510Z,14.26
2023-05-15T05:37:06.537Z,14.17
2023-05-15T05:39:33.473Z,14.17
2023-05-15T05:42:00.350Z,14.13
2023-05-15T05:44:27.465Z,14.11
2023-05-15T05:46:54.335Z,13.97
2023-05-15T05:49:21.265Z,13.94
2023-05-15T05:51:48.076Z,13.96
2023-05-15T05:54:18.455Z,14.09
2023-05-15T05:56:46.056Z,14.06
2023-05-15T05:59:12.918Z,14.07
2023-05-15T06:01:40.219Z,14.08
2023-05-15T06:04:07.077Z,14.54
2023-05-15T06:06:34.598Z,15.17
2023-05-15T06:09:01.418Z,15.46
2023-05-15T06:11:28.117Z,15.67
2023-05-15T06:13:54.940Z,16.16
2023-05-15T06:16:21.839Z,15.80
2023-05-15T06:18:48.685Z,15.91
2023-05-15T06:21:15.506Z,16.02
2023-05-15T06:23:42.221Z,16.04
2023-05-15T06:26:09.117Z,16.34
2023-05-15T06:28:36.000Z,16.66
2023-05-15T06:31:02.941Z,16.93
2023-05-15T06:33:29.795Z,17.26
2023-05-15T06:35:56.616Z,17.60
2023-05-15T06:38:23.373Z,17.41
2023-05-15T06:40:50.219Z,17.77
2023-05-15T06:43:16.968Z,17.99
2023-05-15T06:45:43.698Z,18.36
2023-05-15T06:48:10.615Z,18.28
2023-05-15T06:50:37.494Z,18.26
2023-05-15T06:53:04.249Z,18.51
2023-05-15T06:55:31.241Z,18.65
2023-05-15T06:57:58.030Z,18.68
2023-05-15T07:00:24.857Z,18.48
2023-05-15T07:02:52.001Z,18.40
2023-05-15T07:05:19.032Z,19.08
2023-05-15T07:07:46.000Z,19.73
2023-05-15T07:10:12.905Z,19.28
2023-05-15T07:12:39.718Z,19.58
2023-05-15T07:15:07.229Z,19.18
2023-05-15T07:17:34.387Z,19.88
2023-05-15T07:20:01.542Z,20.75
2023-05-15T07:22:29.315Z,21.19
2023-05-15T07:24:56.562Z,20.79
2023-05-15T07:27:23.522Z,20.28
2023-05-15T07:29:50.411Z,20.63
2023-05-15T07:32:17.161Z,20.40
2023-05-15T07:34:44.158Z,20.22
2023-05-15T07:37:11.187Z,20.35
2023-05-15T07:39:38.047Z,21.51
2023-05-15T07:42:05.085Z,21.31
2023-05-15T07:44:31.982Z,21.16
2023-05-15T07:46:59.146Z,20.31
2023-05-15T07:49:25.860Z,19.96
2023-05-15T07:51:52.582Z,20.10
2023-05-15T07:54:19.350Z,19.82
2023-05-15T07:56:46.134Z,19.77
2023-05-15T07:59:13.021Z,19.88
2023-05-15T08:01:39.715Z,19.50
2023-05-15T08:04:08.917Z,19.68
2023-05-15T08:06:38.240Z,19.50
2023-05-15T08:09:05.137Z,19.15
2023-05-15T08:11:31.917Z,19.39
2023-05-15T08:13:58.818Z,19.15
2023-05-15T08:16:25.754Z,19.57
2023-05-15T08:18:55.809Z,19.53
2023-05-15T08:21:22.496Z,19.69
2023-05-15T08:23:49.524Z,19.38
2023-05-15T08:26:16.228Z,19.56
2023-05-15T08:28:43.005Z,19.72
2023-05-15T08:31:09.778Z,19.71
2023-05-15T08:33:36.635Z,19.80
2023-05-15T08:36:03.549Z,19.69
2023-05-15T08:38:30.531Z,20.00
2023-05-15T08:41:02.497Z,20.25
2023-05-15T08:43:31.913Z,20.20
2023-05-15T08:45:59.808Z,20.45
2023-05-15T08:48:29.823Z,20.01
2023-05-15T08:50:58.659Z,20.09
2023-05-15T08:53:25.932Z,20.40
2023-05-15T08:55:52.790Z,20.75
2023-05-15T08:58:25.791Z,21.05
2023-05-15T09:00:52.805Z,20.81
2023-05-15T09:03:22.868Z,21.42
2023-05-15T09:05:53.055Z,21.17
2023-05-15T09:08:22.801Z,21.25
2023-05-15T09:10:49.850Z,21.61
2023-05-15T09:13:17.540Z,21.33
2023-05-15T09:15:47.665Z,21.27
2023-05-15T09:18:16.308Z,21.09
2023-05-15T09:20:43.477Z,21.07
2023-05-15T09:23:30.724Z,22.05
2023-05-15T09:25:58.358Z,22.77
2023-05-15T09:28:35.040Z,23.17
2023-05-15T09:31:03.718Z,23.64
2023-05-15T09:33:39.904Z,23.41
2023-05-15T09:36:08.210Z,23.08
2023-05-15T09:38:42.952Z,22.90
2023-05-15T09:41:09.933Z,23.08
2023-05-15T09:43:38.898Z,23.51
2023-05-15T09:46:08.350Z,23.66
2023-05-15T09:48:35.889Z,24.19
2023-05-15T09:51:03.090Z,24.14
2023-05-15T09:53:31.834Z,24.61
2023-05-15T09:55:58.778Z,24.70
2023-05-15T09:58:28.102Z,24.71
2023-05-15T10:00:54.870Z,25.27
2023-05-15T10:03:24.579Z,24.59
2023-05-15T10:05:59.872Z,25.32
2023-05-15T10:08:30.917Z,25.02
2023-05-15T10:11:01.173Z,24.63
2023-05-15T10:13:31.242Z,24.31
2023-05-15T10:15:58.799Z,25.45
2023-05-15T10:18:28.885Z,24.75
2023-05-15T10:20:58.038Z,24.85
2023-05-15T10:23:26.038Z,25.20
2023-05-15T10:26:16.023Z,25.67
2023-05-15T10:28:45.341Z,25.25
2023-05-15T10:31:12.897Z,24.83
2023-05-15T10:33:40.539Z,25.24
2023-05-15T10:36:08.351Z,25.52
2023-05-15T10:38:35.983Z,26.27
2023-05-15T10:41:16.605Z,25.93
2023-05-15T10:43:44.609Z,26.15
2023-05-15T10:46:11.824Z,25.18
2023-05-15T10:48:39.243Z,25.46
2023-05-15T10:51:15.060Z,25.12
2023-05-15T10:53:42.660Z,25.52
2023-05-15T10:56:14.797Z,25.32
2023-05-15T10:58:47.283Z,25.61
2023-05-15T11:01:32.341Z,26.60
2023-05-15T11:04:11.245Z,25.12
2023-05-15T11:06:44.014Z,25.03
2023-05-15T11:09:25.861Z,24.15
2023-05-15T11:11:58.311Z,23.72
2023-05-15T11:14:32.572Z,24.85
2023-05-15T11:17:01.023Z,24.88
2023-05-15T11:19:36.760Z,24.80
2023-05-15T11:22:20.759Z,24.74
2023-05-15T11:25:05.587Z,25.25
2023-05-15T11:27:40.345Z,25.30
2023-05-15T11:30:20.813Z,25.10
2023-05-15T11:32:47.665Z,25.74
2023-05-15T11:35:29.035Z,25.56
2023-05-15T11:37:59.858Z,24.82
2023-05-15T11:40:42.941Z,25.63
2023-05-15T11:43:20.267Z,25.91
2023-05-15T11:45:50.160Z,25.24
2023-05-15T11:48:18.216Z,25.66
2023-05-15T11:50:46.252Z,25.66
2023-05-15T11:53:13.704Z,26.58
2023-05-15T11:55:43.244Z,26.09
2023-05-15T11:58:15.505Z,26.45
2023-05-15T12:00:44.048Z,26.40
2023-05-15T12:03:27.501Z,26.19
2023-05-15T12:05:59.092Z,25.94
2023-05-15T12:08:34.282Z,25.79
2023-05-15T12:11:01.958Z,26.03
2023-05-15T12:13:29.240Z,25.80
2023-05-15T12:15:56.926Z,26.35
2023-05-15T12:18:24.441Z,26.69
2023-05-15T12:20:54.859Z,26.58
2023-05-15T12:23:24.442Z,25.77
2023-05-15T12:25:58.661Z,26.27
2023-05-15T12:28:26.664Z,26.18
2023-05-15T12:30:54.191Z,26.94
2023-05-15T12:33:21.345Z,25.89
2023-05-15T12:35:57.436Z,26.08
2023-05-15T12:38:27.089Z,25.89
2023-05-15T12:40:54.667Z,26.13
2023-05-15T12:43:25.059Z,25.38
2023-05-15T12:45:56.397Z,25.34
2023-05-15T12:48:23.756Z,24.44
2023-05-15T12:50:50.551Z,24.36
2023-05-15T12:53:17.631Z,23.70
2023-05-15T12:55:46.556Z,23.77
2023-05-15T12:58:15.396Z,23.74
2023-05-15T13:00:43.314Z,23.49
2023-05-15T13:03:11.231Z,22.99
2023-05-15T13:05:43.062Z,23.32
2023-05-15T13:08:16.421Z,23.26
2023-05-15T13:10:43.283Z,23.02
2023-05-15T13:13:10.061Z,22.99
2023-05-15T13:15:39.246Z,23.02
2023-05-15T13:18:15.171Z,23.10
2023-05-15T13:20:44.008Z,23.14
2023-05-15T13:23:13.405Z,23.98
2023-05-15T13:25:40.586Z,23.91
2023-05-15T13:28:08.314Z,23.80
2023-05-15T13:30:35.805Z,23.60
2023-05-15T13:33:02.826Z,23.09
2023-05-15T13:35:29.907Z,22.87
2023-05-15T13:37:57.060Z,22.03
2023-05-15T13:40:24.578Z,22.14
2023-05-15T13:42:51.522Z,22.07
2023-05-15T13:45:18.490Z,22.09
2023-05-15T13:47:45.462Z,21.57
2023-05-15T13:50:14.469Z,21.05
2023-05-15T13:52:42.470Z,21.63
2023-05-15T13:55:09.915Z,20.79
2023-05-15T13:57:41.088Z,22.12
2023-05-15T14:00:12.589Z,21.97
2023-05-15T14:02:43.836Z,21.98
2023-05-15T14:05:12.343Z,21.99
2023-05-15T14:07:39.344Z,22.11
2023-05-15T14:10:06.778Z,22.55
2023-05-15T14:12:34.059Z,22.40
2023-05-15T14:15:01.209Z,21.99
2023-05-15T14:17:28.675Z,22.13
2023-05-15T14:19:55.766Z,21.89
2023-05-15T14:22:24.831Z,21.60
2023-05-15T14:24:53.503Z,21.57
2023-05-15T14:27:20.353Z,21.30
2023-05-15T14:29:48.957Z,21.50
2023-05-15T14:32:16.860Z,21.70
2023-05-15T14:34:44.348Z,21.09
2023-05-15T14:37:11.432Z,21.11
2023-05-15T14:39:38.230Z,21.50
2023-05-15T14:42:06.306Z,21.74
2023-05-15T14:44:34.090Z,21.76
2023-05-15T14:47:12.573Z,22.02
2023-05-15T14:49:39.744Z,22.22
2023-05-15T14:52:09.205Z,22.03
2023-05-15T14:54:36.630Z,22.78
2023-05-15T14:57:04.008Z,22.98
2023-05-15T14:59:31.037Z,21.98
2023-05-15T15:01:58.159Z,21.59
2023-05-15T15:04:26.932Z,21.88
2023-05-15T15:06:56.819Z,21.89
2023-05-15T15:09:24.183Z,22.09
2023-05-15T15:11:51.389Z,21.38
2023-05-15T15:14:18.320Z,21.20
2023-05-15T15:16:46.318Z,21.30
2023-05-15T15:19:14.161Z,20.80
2023-05-15T15:21:41.520Z,20.96
2023-05-15T15:24:08.323Z,20.89
2023-05-15T15:26:35.256Z,20.34
2023-05-15T15:29:02.063Z,20.25
2023-05-15T15:31:30.232Z,20.28
2023-05-15T15:33:57.843Z,20.21
2023-05-15T15:36:25.365Z,20.35
2023-05-15T15:38:52.309Z,20.26
2023-05-15T15:41:21.568Z,20.19
2023-05-15T15:43:48.780Z,20.39
2023-05-15T15:46:15.669Z,20.70
2023-05-15T15:48:42.497Z,20.98
2023-05-15T15:51:09.283Z,21.32
2023-05-15T15:53:36.069Z,21.74
2023-05-15T15:56:02.795Z,21.96
2023-05-15T15:58:30.082Z,22.29
2023-05-15T16:00:57.974Z,22.72
2023-05-15T16:03:25.109Z,22.69
2023-05-15T16:05:51.965Z,22.69
2023-05-15T16:08:18.797Z,22.23
2023-05-15T16:10:45.730Z,22.29
2023-05-15T16:13:12.611Z,22.39
2023-05-15T16:15:39.348Z,21.82
2023-05-15T16:18:07.006Z,21.49
2023-05-15T16:20:35.263Z,21.37
2023-05-15T16:23:02.318Z,20.89
2023-05-15T16:25:29.173Z,20.79
2023-05-15T16:27:55.934Z,20.68
2023-05-15T16:30:28.255Z,20.39
2023-05-15T16:33:01.163Z,20.06
2023-05-15T16:35:28.122Z,20.17
2023-05-15T16:37:55.302Z,19.92
2023-05-15T16:40:22.091Z,19.94
2023-05-15T16:42:48.823Z,19.83
2023-05-15T16:45:16.384Z,19.79
2023-05-15T16:47:43.196Z,19.65
2023-05-15T16:50:10.776Z,19.56
2023-05-15T16:52:39.523Z,19.56
2023-05-15T16:55:06.723Z,19.54
2023-05-15T16:57:33.492Z,19.44
2023-05-15T17:00:00.227Z,19.33
2023-05-15T17:02:27.132Z,19.16
2023-05-15T17:04:54.086Z,19.09
2023-05-15T17:07:20.968Z,18.80
2023-05-15T17:09:47.794Z,18.57
2023-05-15T17:12:14.581Z,18.82
2023-05-15T17:14:41.406Z,18.79
2023-05-15T17:17:08.305Z,18.76
2023-05-15T17:19:35.218Z,18.77
2023-05-15T17:22:02.149Z,18.72
2023-05-15T17:24:42.237Z,18.67
2023-05-15T17:27:18.371Z,18.29
2023-05-15T17:29:45.517Z,18.23
2023-05-15T17:32:12.464Z,18.32
2023-05-15T17:34:39.346Z,18.24
2023-05-15T17:37:06.085Z,17.90
2023-05-15T17:39:33.110Z,18.23
2023-05-15T17:42:00.170Z,18.10
2023-05-15T17:44:29.716Z,18.14
2023-05-15T17:46:57.545Z,18.02
2023-05-15T17:49:24.703Z,18.04
2023-05-15T17:51:51.676Z,17.95
2023-05-15T17:54:18.678Z,17.83
2023-05-15T17:56:45.692Z,17.74
2023-05-15T17:59:12.626Z,17.68
2023-05-15T18:01:39.640Z,17.67
2023-05-15T18:04:06.557Z,17.68
2023-05-15T18:06:36.269Z,17.63
2023-05-15T18:09:03.559Z,17.59
2023-05-15T18:11:30.474Z,17.49
2023-05-15T18:13:57.380Z,17.31
2023-05-15T18:16:24.516Z,17.13
2023-05-15T18:18:52.266Z,16.91
2023-05-15T18:21:19.472Z,16.75
2023-05-15T18:23:46.337Z,16.47
2023-05-15T18:26:13.275Z,16.27
2023-05-15T18:28:40.261Z,16.15
2023-05-15T18:31:07.149Z,16.15
2023-05-15T18:33:34.399Z,16.07
2023-05-15T18:36:01.474Z,15.99
2023-05-15T18:38:28.569Z,15.75
2023-05-15T18:40:55.344Z,15.85
2023-05-15T18:43:22.114Z,15.82
2023-05-15T18:45:49.008Z,15.80
2023-05-15T18:48:17.248Z,15.67
2023-05-15T18:50:44.064Z,15.68
2023-05-15T18:53:10.988Z,15.78
2023-05-15T18:55:38.966Z,15.82
2023-05-15T18:58:06.018Z,15.80
2023-05-15T19:00:38.929Z,15.77
2023-05-15T19:03:08.525Z,15.62
2023-05-15T19:05:35.690Z,15.67
2023-05-15T19:08:03.104Z,15.60
2023-05-15T19:10:30.577Z,15.55
2023-05-15T19:12:58.095Z,15.53
2023-05-15T19:15:25.272Z,15.53
2023-05-15T19:17:52.393Z,15.63
2023-05-15T19:20:19.521Z,15.67
2023-05-15T19:22:46.538Z,15.55
2023-05-15T19:25:13.391Z,15.41
2023-05-15T19:27:40.379Z,15.39
2023-05-15T19:30:08.418Z,15.47
2023-05-15T19:32:35.332Z,15.40
2023-05-15T19:35:02.564Z,15.21
2023-05-15T19:37:29.599Z,15.27
2023-05-15T19:39:57.130Z,15.28
2023-05-15T19:42:23.959Z,15.25
2023-05-15T19:44:50.775Z,15.30
2023-05-15T19:47:17.501Z,15.32
2023-05-15T19:49:44.377Z,15.32
2023-05-15T19:52:11.168Z,15.24
2023-05-15T19:54:38.072Z,15.16
2023-05-15T19:57:04.956Z,15.27
2023-05-15T19:59:31.812Z,15.16
2023-05-15T20:01:58.617Z,15.16
2023-05-15T20:04:25.966Z,15.22
2023-05-15T20:06:53.290Z,15.32
2023-05-15T20:09:20.428Z,15.24
2023-05-15T20:11:47.122Z,15.17
2023-05-15T20:14:14.544Z,15.14
2023-05-15T20:16:41.364Z,15.01
2023-05-15T20:19:11.034Z,14.88
2023-05-15T20:21:38.966Z,14.91
2023-05-15T20:24:06.924Z,14.79
2023-05-15T20:26:35.978Z,14.69
2023-05-15T20:29:03.512Z,14.77
2023-05-15T20:31:30.370Z,14.63
2023-05-15T20:33:57.316Z,14.56
2023-05-15T20:36:25.598Z,14.44
2023-05-15T20:38:52.825Z,14.40
2023-05-15T20:41:20.358Z,14.19
2023-05-15T20:43:49.566Z,14.28
2023-05-15T20:46:17.161Z,14.09
2023-05-15T20:48:44.139Z,13.96
2023-05-15T20:51:11.087Z,13.97
2023-05-15T20:53:37.920Z,13.82
2023-05-15T20:56:04.785Z,13.81
2023-05-15T20:58:31.619Z,13.83
2023-05-15T21:01:00.971Z,13.80
2023-05-15T21:03:29.131Z,13.67
2023-05-15T21:05:57.560Z,13.61
2023-05-15T21:08:24.510Z,13.52
2023-05-15T21:10:53.142Z,13.45
2023-05-15T21:13:19.904Z,13.40
2023-05-15T21:15:47.074Z,13.38
2023-05-15T21:18:13.977Z,13.40
2023-05-15T21:20:41.702Z,13.17
2023-05-15T21:23:08.476Z,13.16
2023-05-15T21:25:35.418Z,13.12
2023-05-15T21:28:02.160Z,13.12
2023-05-15T21:30:28.957Z,13.06
2023-05-15T21:32:55.792Z,13.10
2023-05-15T21:35:22.604Z,13.09
2023-05-15T21:37:49.327Z,13.00
2023-05-15T21:40:16.153Z,13.01
2023-05-15T21:42:43.494Z,12.97
2023-05-15T21:45:10.899Z,12.95
2023-05-15T21:47:37.811Z,12.93
2023-05-15T21:50:06.061Z,12.75
2023-05-15T21:52:32.921Z,12.80
2023-05-15T21:54:59.633Z,12.75
2023-05-15T21:57:26.401Z,12.71
2023-05-15T21:59:53.073Z,12.77
2023-05-15T22:02:19.867Z,12.65
2023-05-15T22:04:46.736Z,12.61
2023-05-15T22:07:14.931Z,12.52
2023-05-15T22:09:43.790Z,12.46
2023-05-15T22:12:10.624Z,12.59
2023-05-15T22:14:39.615Z,12.51
2023-05-15T22:17:11.095Z,12.41
2023-05-15T22:19:37.910Z,12.43
2023-05-15T22:22:04.933Z,12.27
2023-05-15T22:24:32.459Z,12.41
2023-05-15T22:26:59.654Z,12.38
2023-05-15T22:29:26.782Z,12.25
2023-05-15T22:31:53.532Z,12.25
2023-05-15T22:34:20.310Z,12.23
2023-05-15T22:36:47.087Z,12.06
2023-05-15T22:39:13.855Z,12.04
2023-05-15T22:41:40.763Z,12.02
2023-05-15T22:44:07.427Z,11.99
2023-05-15T22:46:34.226Z,11.94
2023-05-15T22:49:01.526Z,11.85
2023-05-15T22:51:29.480Z,11.87
2023-05-15T22:53:56.213Z,11.78
2023-05-15T22:56:22.940Z,11.77
2023-05-15T22:58:49.703Z,11.74
2023-05-15T23:01:16.531Z,11.68
2023-05-15T23:03:43.295Z,11.73
2023-05-15T23:06:10.595Z,11.76
2023-05-15T23:08:37.329Z,12.33
2023-05-15T23:11:04.278Z,12.02
2023-05-15T23:13:31.098Z,12.30
2023-05-15T23:15:57.900Z,11.85
2023-05-15T23:18:25.113Z,11.75
2023-05-15T23:20:52.343Z,11.76
2023-05-15T23:23:19.527Z,11.98
2023-05-15T23:25:46.303Z,11.99
2023-05-15T23:28:13.135Z,12.04
2023-05-15T23:30:39.931Z,12.17
2023-05-15T23:33:06.701Z,12.25
2023-05-15T23:35:33.461Z,12.23
2023-05-15T23:38:00.321Z,12.38
2023-05-15T23:40:27.244Z,12.44
2023-05-15T23:42:54.266Z,12.49
2023-05-15T23:45:21.030Z,12.52
2023-05-15T23:47:47.996Z,12.59
2023-05-15T23:50:14.795Z,12.62
2023-05-15T23:52:41.532Z,12.67
2023-05-15T23:55:08.715Z,12.71
2023-05-15T23:57:35.515Z,12.72
